Time;durP1;ratioP1;P1;durP2;ratioP2;P2;SDS_P1;SDS_P2;PMS_P1;PMS_P2;Temp;Humidity;BMP_temperature;BMP_pressure;BME280_temperature;BME280_humidity;BME280_pressure;Samples;Min_cycle;Max_cycle;Signal;HPM_P1;HPM_P2
2021/07/02 00:01:25;;;;;;;7.50;4.53;;;13.60;99.90;;;;;;5091442;28;20433;-78
2021/07/02 00:03:51;;;;;;;4.77;3.80;;;13.70;99.90;;;;;;5086151;28;20444;-77
2021/07/02 00:06:18;;;;;;;8.03;4.00;;;13.70;99.90;;;;;;5081523;28;20455;-78
2021/07/02 00:08:45;;;;;;;6.80;4.00;;;13.70;99.90;;;;;;5076253;28;20491;-78
2021/07/02 00:11:13;;;;;;;7.10;5.40;;;13.70;99.90;;;;;;5088565;28;20466;-77
2021/07/02 00:13:40;;;;;;;5.90;4.27;;;13.70;99.90;;;;;;5096352;28;20462;-77
2021/07/02 00:16:07;;;;;;;6.30;4.83;;;13.70;99.90;;;;;;5085898;28;20492;-77
2021/07/02 00:18:33;;;;;;;6.73;4.63;;;13.70;99.90;;;;;;5090137;28;20473;-77
2021/07/02 00:21:00;;;;;;;6.00;3.87;;;13.70;99.90;;;;;;5085374;28;20943;-77
2021/07/02 00:23:27;;;;;;;6.00;3.90;;;13.70;99.90;;;;;;5093099;28;20433;-77
2021/07/02 00:25:54;;;;;;;5.67;4.50;;;13.60;99.90;;;;;;5076219;28;20448;-77
2021/07/02 00:28:23;;;;;;;4.37;3.80;;;13.60;99.90;;;;;;5089825;28;20483;-77
2021/07/02 00:30:50;;;;;;;6.47;3.80;;;13.70;99.90;;;;;;5085193;28;20462;-77
2021/07/02 00:33:17;;;;;;;6.03;4.23;;;13.60;99.90;;;;;;5092688;28;20441;-77
2021/07/02 00:35:43;;;;;;;4.97;4.23;;;13.60;99.90;;;;;;5085619;28;20451;-77
2021/07/02 00:38:10;;;;;;;7.20;4.13;;;13.60;99.90;;;;;;5082675;28;20475;-77
2021/07/02 00:40:38;;;;;;;5.57;4.23;;;13.60;99.90;;;;;;5084676;28;20444;-77
2021/07/02 00:43:05;;;;;;;5.93;4.27;;;13.60;99.90;;;;;;5093709;28;20444;-77
2021/07/02 00:45:34;;;;;;;8.90;4.23;;;13.60;99.90;;;;;;5083911;28;20452;-77
2021/07/02 00:48:01;;;;;;;8.00;4.10;;;13.60;99.90;;;;;;5094895;28;20483;-77
2021/07/02 00:50:27;;;;;;;6.97;5.40;;;13.60;99.90;;;;;;5094923;28;20939;-77
2021/07/02 00:52:54;;;;;;;9.93;4.07;;;13.60;99.90;;;;;;5095954;28;20452;-77
2021/07/02 00:55:21;;;;;;;5.50;4.43;;;13.60;99.90;;;;;;5093829;28;20440;-77
2021/07/02 00:57:48;;;;;;;7.53;4.67;;;13.60;99.90;;;;;;5085901;28;20460;-77
2021/07/02 01:00:16;;;;;;;5.77;4.20;;;13.60;99.90;;;;;;5075468;28;20445;-77
2021/07/02 01:02:44;;;;;;;5.47;4.50;;;13.50;99.90;;;;;;5085616;28;20455;-77
2021/07/02 01:05:11;;;;;;;5.70;3.90;;;13.50;99.90;;;;;;5076130;28;20456;-77
2021/07/02 01:07:40;;;;;;;6.37;4.43;;;13.50;99.90;;;;;;5090123;28;20468;-77
2021/07/02 01:10:07;;;;;;;5.00;3.80;;;13.50;99.90;;;;;;5095342;28;20444;-77
2021/07/02 01:12:35;;;;;;;4.53;3.90;;;13.50;99.90;;;;;;5088112;28;20445;-77
2021/07/02 01:15:01;;;;;;;8.83;4.77;;;13.50;99.90;;;;;;5088136;28;20478;-77
2021/07/02 01:17:28;;;;;;;4.73;3.87;;;13.50;99.90;;;;;;5074915;28;20834;-77
2021/07/02 01:19:58;;;;;;;5.10;4.23;;;13.50;99.90;;;;;;5088104;28;20444;-77
2021/07/02 01:22:28;;;;;;;7.17;4.53;;;13.50;99.90;;;;;;5084795;28;20451;-77
2021/07/02 01:24:56;;;;;;;9.00;4.33;;;13.50;99.90;;;;;;5081985;28;20444;-77
2021/07/02 01:27:24;;;;;;;5.10;3.83;;;13.50;99.90;;;;;;5082927;28;20549;-77
2021/07/02 01:29:51;;;;;;;6.37;4.10;;;13.50;99.90;;;;;;5095196;28;20475;-77
2021/07/02 01:32:18;;;;;;;4.27;3.33;;;13.40;99.90;;;;;;5075879;28;20449;-77
2021/07/02 01:34:45;;;;;;;6.17;4.23;;;13.40;99.90;;;;;;5090335;28;20471;-77
2021/07/02 01:37:13;;;;;;;6.70;4.37;;;13.40;99.90;;;;;;5094642;28;20468;-77
2021/07/02 01:39:41;;;;;;;5.93;4.10;;;13.40;99.90;;;;;;5088109;28;20444;-77
2021/07/02 01:42:08;;;;;;;6.33;3.73;;;13.40;99.90;;;;;;5089882;28;20953;-77
2021/07/02 01:44:35;;;;;;;3.80;3.43;;;13.50;99.90;;;;;;5082433;28;20441;-77
2021/07/02 01:47:02;;;;;;;6.63;3.87;;;13.40;99.90;;;;;;5094493;28;20460;-77
2021/07/02 01:49:29;;;;;;;5.43;3.63;;;13.40;99.90;;;;;;5081956;28;20468;-77
2021/07/02 01:51:56;;;;;;;4.63;3.47;;;13.40;99.90;;;;;;5094427;28;20452;-78
2021/07/02 01:54:23;;;;;;;4.27;3.27;;;13.40;99.90;;;;;;5075404;28;20459;-77
2021/07/02 01:56:51;;;;;;;7.10;4.20;;;13.40;99.90;;;;;;5085108;28;20443;-77
2021/07/02 01:59:19;;;;;;;5.53;3.60;;;13.40;99.90;;;;;;5084359;28;20451;-77
2021/07/02 02:01:48;;;;;;;5.40;3.80;;;13.30;99.90;;;;;;5081547;28;20448;-77
2021/07/02 02:04:15;;;;;;;5.17;4.03;;;13.30;99.90;;;;;;5081330;28;20460;-77
2021/07/02 02:06:42;;;;;;;5.17;3.90;;;13.20;99.90;;;;;;5094547;28;20444;-77
2021/07/02 02:09:08;;;;;;;4.73;3.80;;;13.20;99.90;;;;;;5094062;28;20476;-77
2021/07/02 02:11:35;;;;;;;5.13;3.80;;;13.20;99.90;;;;;;5081880;28;20444;-77
2021/07/02 02:14:09;;;;;;;4.47;3.70;;;13.20;99.90;;;;;;5082224;28;20939;-77
2021/07/02 02:16:36;;;;;;;8.80;4.50;;;13.20;99.90;;;;;;5073455;28;20508;-77
2021/07/02 02:19:03;;;;;;;10.67;4.93;;;13.20;99.90;;;;;;5073517;28;20456;-77
2021/07/02 02:21:30;;;;;;;4.77;3.67;;;13.20;99.90;;;;;;5073607;28;20440;-77
2021/07/02 02:23:57;;;;;;;6.20;3.40;;;13.10;99.90;;;;;;5073483;28;20440;-77
2021/07/02 02:26:23;;;;;;;5.10;3.93;;;13.00;99.90;;;;;;5073091;28;20444;-77
2021/07/02 02:28:50;;;;;;;6.03;4.03;;;13.00;99.90;;;;;;5073550;28;20492;-77
2021/07/02 02:31:18;;;;;;;4.83;3.70;;;13.00;99.90;;;;;;5073580;28;20460;-77
2021/07/02 02:33:45;;;;;;;3.60;3.20;;;12.90;99.90;;;;;;5073043;28;20441;-77
2021/07/02 02:36:12;;;;;;;6.27;4.27;;;12.90;99.90;;;;;;5073556;28;20441;-77
2021/07/02 02:38:38;;;;;;;4.83;3.57;;;12.90;99.90;;;;;;5073381;28;20465;-77
2021/07/02 02:41:05;;;;;;;4.50;3.60;;;12.90;99.90;;;;;;5073524;28;20445;-77
2021/07/02 02:43:32;;;;;;;5.93;4.17;;;12.90;99.90;;;;;;5073207;28;20445;-77
2021/07/02 02:45:59;;;;;;;5.87;3.90;;;12.80;99.90;;;;;;5073116;28;20935;-77
2021/07/02 02:48:27;;;;;;;5.30;3.43;;;12.80;99.90;;;;;;5072992;28;20489;-77
2021/07/02 02:50:54;;;;;;;6.57;4.57;;;12.80;99.90;;;;;;5073160;28;20468;-77
2021/07/02 02:53:20;;;;;;;6.17;4.33;;;12.80;99.90;;;;;;5085261;28;20440;-77
2021/07/02 02:55:47;;;;;;;5.23;4.07;;;12.90;99.90;;;;;;5083117;28;20816;-77
2021/07/02 02:58:14;;;;;;;4.53;3.80;;;12.80;99.90;;;;;;5074332;28;20461;-77
2021/07/02 03:00:41;;;;;;;4.87;3.60;;;12.70;99.90;;;;;;5089587;28;20455;-77
2021/07/02 03:03:07;;;;;;;5.23;3.80;;;12.80;99.90;;;;;;5080809;28;20449;-77
2021/07/02 03:05:36;;;;;;;6.07;3.90;;;12.70;99.90;;;;;;5073114;28;20440;-77
2021/07/02 03:08:02;;;;;;;5.70;4.13;;;12.70;99.90;;;;;;5083827;28;20469;-77
2021/07/02 03:10:30;;;;;;;7.73;4.13;;;12.60;99.90;;;;;;5088606;28;20851;-77
2021/07/02 03:12:56;;;;;;;5.07;4.10;;;12.60;99.90;;;;;;5079625;28;20448;-77
2021/07/02 03:15:23;;;;;;;5.30;3.77;;;12.60;99.90;;;;;;5083813;28;21007;-77
2021/07/02 03:17:50;;;;;;;6.63;4.13;;;12.60;99.90;;;;;;5072742;28;20472;-77
2021/07/02 03:20:17;;;;;;;6.87;3.83;;;12.60;99.90;;;;;;5083707;28;20440;-77
2021/07/02 03:22:45;;;;;;;5.13;4.07;;;12.60;99.90;;;;;;5083723;28;20449;-77
2021/07/02 03:25:13;;;;;;;5.33;3.43;;;12.60;99.90;;;;;;5083454;28;20448;-77
2021/07/02 03:27:40;;;;;;;7.87;4.43;;;12.60;99.90;;;;;;5082968;28;20838;-77
2021/07/02 03:30:10;;;;;;;6.07;4.30;;;12.50;99.90;;;;;;5083537;28;20482;-78
2021/07/02 03:32:36;;;;;;;5.07;4.10;;;12.50;99.90;;;;;;5082926;28;20454;-77
2021/07/02 03:35:05;;;;;;;5.13;4.13;;;12.50;99.90;;;;;;5074602;28;20449;-77
2021/07/02 03:37:31;;;;;;;6.20;4.43;;;12.50;99.90;;;;;;5083651;28;20465;-77
2021/07/02 03:39:59;;;;;;;7.73;4.70;;;12.40;99.90;;;;;;5086831;28;20463;-77
2021/07/02 03:42:26;;;;;;;5.50;4.27;;;12.40;99.90;;;;;;5079533;28;20455;-76
2021/07/02 03:44:53;;;;;;;6.40;4.00;;;12.40;99.90;;;;;;5072726;28;20936;-77
2021/07/02 03:47:20;;;;;;;13.53;5.10;;;12.40;99.90;;;;;;5080544;28;20475;-77
2021/07/02 03:49:46;;;;;;;5.47;4.00;;;12.40;99.90;;;;;;5092845;28;20471;-77
2021/07/02 03:52:13;;;;;;;9.50;4.20;;;12.40;99.90;;;;;;5080567;28;20447;-76
2021/07/02 03:54:40;;;;;;;7.23;5.23;;;12.40;99.90;;;;;;5092995;28;20440;-77
2021/07/02 03:57:14;;;;;;;5.43;3.90;;;12.40;99.90;;;;;;5083758;28;20476;-77
2021/07/02 03:59:42;;;;;;;6.57;4.43;;;12.40;99.90;;;;;;5080681;28;20440;-77
2021/07/02 04:02:09;;;;;;;7.47;4.60;;;12.40;99.90;;;;;;5081113;28;20444;-77
2021/07/02 04:04:36;;;;;;;5.70;4.23;;;12.50;99.90;;;;;;5087734;28;20815;-76
2021/07/02 04:07:04;;;;;;;6.60;5.00;;;12.50;99.90;;;;;;5084422;28;20467;-77
2021/07/02 04:09:31;;;;;;;5.80;4.80;;;12.60;99.90;;;;;;5082025;28;20481;-77
2021/07/02 04:11:58;;;;;;;6.37;5.00;;;12.60;99.90;;;;;;5074296;28;20788;-76
2021/07/02 04:14:27;;;;;;;6.30;4.37;;;12.70;99.90;;;;;;5077502;28;20969;-77
2021/07/02 04:16:54;;;;;;;5.57;4.27;;;12.70;99.90;;;;;;5092529;28;20825;-77
2021/07/02 04:19:21;;;;;;;5.70;4.47;;;12.80;99.90;;;;;;5088581;28;20457;-77
2021/07/02 04:21:48;;;;;;;9.77;4.97;;;12.80;99.90;;;;;;5086645;28;20444;-77
2021/07/02 04:24:15;;;;;;;7.77;4.90;;;12.80;99.90;;;;;;5082598;28;20820;-78
2021/07/02 04:26:42;;;;;;;9.60;5.40;;;12.80;99.90;;;;;;5086747;28;20448;-76
2021/07/02 04:29:09;;;;;;;6.37;4.13;;;12.90;99.90;;;;;;5084802;28;20475;-77
2021/07/02 04:31:37;;;;;;;6.73;4.63;;;12.90;99.90;;;;;;5085189;28;20448;-76
2021/07/02 04:34:04;;;;;;;7.40;4.73;;;13.00;99.90;;;;;;5077859;28;20935;-77
2021/07/02 04:36:30;;;;;;;7.53;4.67;;;13.00;99.90;;;;;;5086836;28;20448;-76
2021/07/02 04:38:57;;;;;;;9.60;5.10;;;13.00;99.90;;;;;;5075896;28;20463;-76
2021/07/02 04:41:24;;;;;;;8.07;5.77;;;13.10;99.90;;;;;;5079270;28;20953;-76
2021/07/02 04:43:51;;;;;;;4.97;3.93;;;13.10;99.90;;;;;;5093570;28;20448;-77
2021/07/02 04:46:18;;;;;;;6.53;4.50;;;13.10;99.90;;;;;;5086964;28;21004;-77
2021/07/02 04:48:46;;;;;;;5.70;4.17;;;13.10;99.90;;;;;;5095665;28;20978;-76
2021/07/02 04:51:13;;;;;;;6.47;4.60;;;13.10;99.90;;;;;;5095408;28;20448;-76
2021/07/02 04:53:41;;;;;;;7.57;4.60;;;13.10;99.90;;;;;;5095605;28;20455;-76
2021/07/02 04:56:11;;;;;;;8.77;5.63;;;13.00;99.90;;;;;;5095990;28;20498;-76
2021/07/02 04:58:38;;;;;;;8.27;5.10;;;13.00;99.90;;;;;;5095931;28;20502;-76
2021/07/02 05:01:05;;;;;;;5.03;4.23;;;13.00;99.90;;;;;;5095897;28;20472;-76
2021/07/02 05:03:31;;;;;;;7.27;4.77;;;13.10;99.90;;;;;;5095836;28;20447;-76
2021/07/02 05:06:02;;;;;;;5.23;4.50;;;13.10;99.90;;;;;;5095813;28;20455;-76
2021/07/02 05:08:28;;;;;;;7.23;5.57;;;13.20;99.90;;;;;;5095410;28;20464;-76
2021/07/02 05:10:55;;;;;;;6.70;4.77;;;13.20;99.90;;;;;;5095340;28;20985;-76
2021/07/02 05:13:22;;;;;;;6.50;4.83;;;13.30;99.90;;;;;;5095347;28;20917;-77
2021/07/02 05:15:49;;;;;;;7.13;5.53;;;13.40;99.90;;;;;;5095275;28;20494;-76
2021/07/02 05:18:16;;;;;;;5.17;4.50;;;13.50;99.90;;;;;;5095498;28;20892;-76
2021/07/02 05:20:44;;;;;;;5.30;4.67;;;13.50;99.90;;;;;;5095195;28;20447;-76
2021/07/02 05:23:12;;;;;;;10.53;5.10;;;13.60;99.90;;;;;;5095420;28;20452;-76
2021/07/02 05:25:39;;;;;;;9.13;4.37;;;13.60;99.90;;;;;;5095401;28;20447;-77
2021/07/02 05:28:06;;;;;;;6.13;4.40;;;13.70;99.90;;;;;;5095313;28;20475;-76
2021/07/02 05:30:33;;;;;;;5.83;5.10;;;13.80;99.90;;;;;;5095215;28;20479;-76
2021/07/02 05:33:00;;;;;;;7.33;5.47;;;13.90;99.90;;;;;;5094865;28;20448;-77
2021/07/02 05:35:27;;;;;;;5.40;4.70;;;14.00;99.90;;;;;;5095230;28;20455;-76
2021/07/02 05:37:54;;;;;;;7.97;5.33;;;14.00;99.90;;;;;;5094824;28;20811;-77
2021/07/02 05:40:22;;;;;;;7.67;4.20;;;14.10;99.90;;;;;;5095099;28;20451;-76
2021/07/02 05:42:48;;;;;;;5.20;4.67;;;14.20;99.90;;;;;;5095028;28;20451;-77
2021/07/02 05:45:15;;;;;;;6.07;4.40;;;14.30;99.90;;;;;;5095041;28;20450;-76
2021/07/02 05:47:47;;;;;;;4.43;4.03;;;14.40;99.90;;;;;;5094560;28;20847;-76
2021/07/02 05:50:15;;;;;;;5.23;4.70;;;14.50;99.90;;;;;;5094538;28;20842;-77
2021/07/02 05:52:42;;;;;;;5.60;4.67;;;14.60;99.90;;;;;;5094848;28;20805;-76
2021/07/02 05:55:10;;;;;;;6.13;4.60;;;14.70;99.90;;;;;;5095385;28;20448;-77
2021/07/02 05:57:39;;;;;;;5.13;4.60;;;14.80;99.90;;;;;;5094399;28;20990;-76
2021/07/02 06:00:07;;;;;;;5.03;4.10;;;14.90;99.90;;;;;;5094759;28;20435;-77
2021/07/02 06:02:34;;;;;;;6.50;4.93;;;15.00;99.90;;;;;;5094693;28;20774;-76
2021/07/02 06:05:01;;;;;;;4.90;4.20;;;15.10;99.90;;;;;;5094649;28;20436;-76
2021/07/02 06:07:27;;;;;;;5.80;5.20;;;15.30;99.90;;;;;;5094502;28;20460;-76
2021/07/02 06:09:54;;;;;;;6.57;4.47;;;15.40;99.90;;;;;;5094171;28;20852;-77
2021/07/02 06:12:21;;;;;;;7.20;4.80;;;15.50;99.90;;;;;;5094517;28;20429;-76
2021/07/02 06:14:49;;;;;;;5.90;4.40;;;15.60;99.90;;;;;;5094208;28;20479;-76
2021/07/02 06:17:16;;;;;;;6.70;4.90;;;15.80;99.90;;;;;;5094061;28;21017;-77
2021/07/02 06:19:42;;;;;;;7.47;5.03;;;16.00;99.90;;;;;;5094401;28;20425;-77
2021/07/02 06:22:09;;;;;;;4.90;4.40;;;16.20;99.90;;;;;;5094388;28;20437;-78
2021/07/02 06:24:36;;;;;;;5.37;4.57;;;16.20;99.90;;;;;;5094050;28;20801;-76
2021/07/02 06:27:03;;;;;;;5.50;4.43;;;16.50;99.90;;;;;;5094171;28;20428;-77
2021/07/02 06:29:30;;;;;;;4.20;3.70;;;16.70;99.90;;;;;;5093821;28;20970;-77
2021/07/02 06:31:58;;;;;;;4.97;3.80;;;16.90;99.90;;;;;;5094201;28;20432;-76
2021/07/02 06:34:24;;;;;;;4.30;3.90;;;17.10;99.90;;;;;;5094126;28;20433;-77
2021/07/02 06:36:51;;;;;;;5.47;4.67;;;17.20;99.90;;;;;;5093729;28;20437;-76
2021/07/02 06:39:18;;;;;;;4.50;4.03;;;17.30;99.90;;;;;;5094087;28;20424;-77
2021/07/02 06:41:45;;;;;;;3.50;3.10;;;17.50;99.90;;;;;;5094056;28;20789;-76
2021/07/02 06:44:11;;;;;;;4.90;4.37;;;17.60;99.90;;;;;;5093989;28;20447;-77
2021/07/02 06:46:38;;;;;;;5.03;4.23;;;17.60;99.90;;;;;;5093543;28;20458;-77
2021/07/02 06:49:06;;;;;;;6.50;4.60;;;17.60;99.90;;;;;;5093504;28;20463;-77
2021/07/02 06:51:33;;;;;;;7.90;4.57;;;17.60;99.90;;;;;;5093507;28;21081;-77
2021/07/02 06:54:01;;;;;;;4.30;3.90;;;17.60;99.90;;;;;;5093892;28;20428;-77
2021/07/02 06:56:29;;;;;;;5.47;4.20;;;17.60;99.90;;;;;;5093816;28;20525;-77
2021/07/02 06:58:56;;;;;;;5.93;4.33;;;17.70;99.90;;;;;;5093746;28;20468;-76
2021/07/02 07:01:23;;;;;;;6.07;4.60;;;17.70;99.90;;;;;;5093423;28;20903;-77
2021/07/02 07:03:50;;;;;;;7.27;4.27;;;17.80;99.90;;;;;;5093685;28;20434;-77
2021/07/02 07:06:19;;;;;;;4.27;3.67;;;18.10;99.90;;;;;;5093696;28;20432;-77
2021/07/02 07:08:45;;;;;;;5.67;4.50;;;18.30;99.90;;;;;;5093558;28;20475;-77
2021/07/02 07:11:12;;;;;;;4.63;3.80;;;18.30;99.90;;;;;;5093263;28;20921;-77
2021/07/02 07:13:41;;;;;;;4.67;4.30;;;18.50;99.90;;;;;;5093603;28;20432;-78
2021/07/02 07:16:08;;;;;;;5.63;5.07;;;18.70;99.90;;;;;;5093179;28;20527;-79
2021/07/02 07:18:35;;;;;;;5.43;4.93;;;18.80;99.90;;;;;;5093142;28;21005;-77
2021/07/02 07:21:02;;;;;;;5.10;4.60;;;18.80;99.90;;;;;;5093523;28;20424;-78
2021/07/02 07:23:30;;;;;;;4.13;3.70;;;18.70;99.90;;;;;;5093517;28;20515;-79
2021/07/02 07:25:57;;;;;;;4.57;4.17;;;18.70;99.90;;;;;;5093491;28;20440;-80
2021/07/02 07:28:24;;;;;;;5.00;4.30;;;18.90;99.90;;;;;;5093038;28;20872;-78
2021/07/02 07:30:50;;;;;;;5.27;3.53;;;19.00;99.90;;;;;;5093349;28;20464;-78
2021/07/02 07:33:18;;;;;;;4.23;3.90;;;19.30;99.90;;;;;;5093411;28;20432;-78
2021/07/02 07:35:46;;;;;;;5.60;4.20;;;19.40;99.90;;;;;;5093366;28;20436;-78
2021/07/02 07:38:13;;;;;;;4.33;3.93;;;19.40;99.90;;;;;;5093458;28;20479;-78
2021/07/02 07:40:41;;;;;;;4.60;4.20;;;19.30;99.90;;;;;;5093326;28;20416;-78
2021/07/02 07:43:07;;;;;;;4.57;4.17;;;19.10;99.90;;;;;;5092982;28;20433;-78
2021/07/02 07:45:34;;;;;;;4.50;4.00;;;19.00;99.90;;;;;;5094142;28;20424;-78
2021/07/02 07:48:01;;;;;;;4.20;3.80;;;18.90;99.90;;;;;;5093131;28;20473;-78
2021/07/02 07:50:31;;;;;;;5.40;3.77;;;18.90;99.90;;;;;;5092898;28;20467;-78
2021/07/02 07:52:59;;;;;;;4.67;4.27;;;19.10;99.90;;;;;;5092901;28;20432;-78
2021/07/02 07:55:26;;;;;;;7.53;4.27;;;19.10;99.90;;;;;;5093176;28;20432;-78
2021/07/02 07:57:55;;;;;;;6.33;3.93;;;19.30;99.90;;;;;;5093838;28;20478;-78
2021/07/02 08:00:23;;;;;;;4.20;3.80;;;19.50;99.90;;;;;;5097017;28;20439;-79
2021/07/02 08:02:51;;;;;;;5.70;3.50;;;19.70;99.90;;;;;;5096975;28;20427;-78
2021/07/02 08:05:18;;;;;;;4.17;3.63;;;20.00;99.90;;;;;;5096740;28;20919;-80
2021/07/02 08:07:45;;;;;;;5.30;4.40;;;20.20;99.90;;;;;;5096535;28;20994;-79
2021/07/02 08:10:14;;;;;;;5.53;5.00;;;20.50;99.90;;;;;;5096815;28;20474;-80
2021/07/02 08:12:41;;;;;;;4.13;3.67;;;21.00;99.90;;;;;;5096911;28;20794;-79
2021/07/02 08:15:11;;;;;;;3.87;3.43;;;21.20;99.90;;;;;;5096590;28;20478;-79
2021/07/02 08:17:39;;;;;;;3.87;3.57;;;21.60;99.90;;;;;;5096719;28;20799;-79
2021/07/02 08:20:08;;;;;;;3.60;3.30;;;21.60;99.90;;;;;;5096711;28;20522;-78
2021/07/02 08:22:35;;;;;;;4.17;3.27;;;21.70;99.90;;;;;;5096410;28;20799;-78
2021/07/02 08:25:02;;;;;;;3.83;3.53;;;21.70;99.90;;;;;;5096684;28;20518;-79
2021/07/02 08:27:33;;;;;;;3.67;3.10;;;22.20;99.90;;;;;;5096545;28;20470;-79
2021/07/02 08:29:59;;;;;;;3.70;3.40;;;22.60;99.90;;;;;;5096473;28;20182;-79
2021/07/02 08:32:27;;;;;;;3.22;3.03;;;23.10;99.90;;;;;;5096542;28;20193;-79
2021/07/02 08:34:54;;;;;;;3.45;3.25;;;23.30;99.90;;;;;;5096500;28;20201;-80
2021/07/02 08:37:20;;;;;;;3.45;3.15;;;23.80;99.90;;;;;;5096096;28;20225;-80
2021/07/02 08:39:48;;;;;;;3.55;3.25;;;23.70;99.90;;;;;;5096393;28;20178;-79
2021/07/02 08:42:15;;;;;;;4.10;3.70;;;23.40;99.90;;;;;;5096075;28;20189;-80
2021/07/02 08:44:42;;;;;;;3.47;3.17;;;23.10;99.90;;;;;;5096333;28;20299;-80
2021/07/02 08:47:10;;;;;;;2.92;2.72;;;23.00;99.90;;;;;;5096295;28;20307;-82
2021/07/02 08:49:44;;;;;;;3.22;3.03;;;22.70;98.00;;;;;;5096961;28;20242;-81
2021/07/02 08:52:12;;;;;;;3.35;3.10;;;22.70;99.90;;;;;;5096089;28;20205;-81
2021/07/02 08:54:42;;;;;;;3.30;3.10;;;22.60;99.90;;;;;;5096097;28;20235;-81
2021/07/02 08:57:09;;;;;;;3.20;3.00;;;22.40;99.90;;;;;;5095968;28;20609;-83
2021/07/02 08:59:36;;;;;;;4.00;3.05;;;22.50;99.90;;;;;;5095953;28;20177;-83
2021/07/02 09:02:03;;;;;;;3.10;2.90;;;22.40;99.90;;;;;;5096414;28;20214;-83
2021/07/02 09:04:34;;;;;;;4.37;3.97;;;22.30;99.90;;;;;;5095940;28;20200;-83
2021/07/02 09:07:05;;;;;;;5.83;4.33;;;22.20;99.90;;;;;;5095772;28;20193;-84
2021/07/02 09:09:54;;;;;;;3.60;3.30;;;21.90;99.90;;;;;;5095562;28;20423;-83
2021/07/02 09:12:23;;;;;;;4.33;3.93;;;21.60;99.90;;;;;;5095565;28;20583;-83
2021/07/02 09:15:08;;;;;;;3.50;3.20;;;21.60;99.90;;;;;;5095126;28;20818;-83
2021/07/02 09:17:37;;;;;;;3.23;2.93;;;21.90;99.90;;;;;;5095738;28;20504;-83
2021/07/02 09:20:12;;;;;;;3.50;3.20;;;22.00;99.90;;;;;;5095630;28;20272;-83
2021/07/02 09:23:00;;;;;;;2.83;2.63;;;21.90;99.90;;;;;;5095622;28;20418;-83
2021/07/02 09:25:29;;;;;;;3.47;3.17;;;22.00;99.70;;;;;;5095547;28;20519;-83
2021/07/02 09:28:00;;;;;;;3.63;3.37;;;21.90;98.30;;;;;;5095396;28;20502;-83
2021/07/02 09:30:30;;;;;;;3.30;3.00;;;22.20;99.30;;;;;;5095260;28;21115;-82
2021/07/02 09:32:59;;;;;;;3.93;3.57;;;22.50;98.10;;;;;;5095296;28;20522;-82
2021/07/02 09:35:34;;;;;;;4.03;3.63;;;22.20;96.40;;;;;;5095699;28;20470;-83
2021/07/02 09:38:04;;;;;;;3.17;2.77;;;22.00;98.20;;;;;;5095932;28;20471;-83
2021/07/02 09:40:32;;;;;;;3.40;3.10;;;22.20;99.00;;;;;;5096012;28;20478;-83
2021/07/02 09:43:01;;;;;;;3.47;3.17;;;22.40;98.90;;;;;;5095082;28;20448;-83
2021/07/02 09:45:29;;;;;;;2.80;2.60;;;22.40;96.60;;;;;;5095073;28;20518;-83
2021/07/02 09:47:56;;;;;;;3.40;3.10;;;22.20;96.60;;;;;;5094985;28;20471;-83
2021/07/02 09:50:25;;;;;;;2.80;2.50;;;22.20;96.30;;;;;;5094704;28;20667;-82
2021/07/02 09:52:55;;;;;;;3.40;3.10;;;22.40;95.10;;;;;;5095623;28;20208;-84
2021/07/02 09:55:26;;;;;;;3.37;3.13;;;22.60;94.90;;;;;;5094972;28;20273;-82
2021/07/02 09:58:14;;;;;;;4.80;4.13;;;22.70;96.00;;;;;;5094768;28;20217;-83
2021/07/02 10:00:43;;;;;;;2.97;2.77;;;22.60;96.10;;;;;;5095447;28;20649;-83
2021/07/02 10:03:11;;;;;;;2.43;2.33;;;22.30;93.60;;;;;;5095505;28;20207;-83
2021/07/02 10:05:49;;;;;;;3.30;3.10;;;22.20;91.90;;;;;;5094550;28;20281;-83
2021/07/02 10:08:17;;;;;;;3.00;2.80;;;22.60;91.50;;;;;;5094306;28;20217;-82
2021/07/02 10:10:46;;;;;;;3.03;2.70;;;22.80;93.20;;;;;;5094579;28;20474;-82
2021/07/02 10:13:15;;;;;;;3.70;3.40;;;23.00;91.70;;;;;;5094676;28;20185;-83
2021/07/02 10:15:44;;;;;;;2.80;2.60;;;23.30;91.00;;;;;;5094080;28;20978;-81
2021/07/02 10:18:14;;;;;;;3.67;3.40;;;23.60;90.80;;;;;;5094428;28;20562;-80
2021/07/02 10:20:43;;;;;;;3.30;3.00;;;23.80;88.30;;;;;;5093817;28;20432;-81
2021/07/02 10:23:12;;;;;;;5.33;3.33;;;23.90;87.80;;;;;;5094491;28;20239;-81
2021/07/02 10:25:42;;;;;;;3.20;3.00;;;23.90;89.30;;;;;;5094436;28;20640;-81
2021/07/02 10:28:13;;;;;;;3.70;3.10;;;24.00;90.10;;;;;;5094255;28;20459;-81
2021/07/02 10:30:42;;;;;;;2.83;2.63;;;24.00;87.70;;;;;;5094227;28;20193;-81
2021/07/02 10:33:10;;;;;;;3.15;2.92;;;24.20;85.00;;;;;;5094208;28;20205;-81
2021/07/02 10:35:43;;;;;;;3.38;2.95;;;24.30;87.80;;;;;;5094299;28;20213;-82
2021/07/02 10:38:11;;;;;;;3.28;2.92;;;24.40;87.30;;;;;;5094118;28;20275;-81
2021/07/02 10:40:40;;;;;;;3.00;2.80;;;24.40;84.30;;;;;;5093801;28;20186;-81
2021/07/02 10:43:21;;;;;;;2.75;2.53;;;24.50;86.30;;;;;;5094069;28;20182;-82
2021/07/02 10:46:14;;;;;;;3.03;2.83;;;24.50;83.60;;;;;;5094028;28;20189;-81
2021/07/02 10:48:56;;;;;;;2.95;2.75;;;24.20;89.30;;;;;;5093671;28;20704;-81
2021/07/02 10:51:53;;;;;;;2.67;2.55;;;23.90;89.60;;;;;;5093631;28;20201;-81
2021/07/02 10:54:34;;;;;;;3.22;2.97;;;23.90;85.30;;;;;;5031365;28;20191;-81
2021/07/02 10:57:04;;;;;;;3.88;3.58;;;24.20;82.00;;;;;;5084998;28;20201;-81
2021/07/02 11:00:09;;;;;;;3.30;3.10;;;24.40;89.30;;;;;;5093838;28;20182;-82
2021/07/02 11:02:37;;;;;;;3.10;2.83;;;24.60;85.20;;;;;;5031150;28;20674;-82
2021/07/02 11:05:26;;;;;;;3.17;2.97;;;24.40;87.50;;;;;;5082414;28;20233;-81
2021/07/02 11:07:53;;;;;;;3.05;2.85;;;24.20;82.50;;;;;;5093310;28;20733;-81
2021/07/02 11:10:22;;;;;;;2.83;2.63;;;23.90;86.30;;;;;;5093275;28;20193;-80
2021/07/02 11:13:02;;;;;;;3.20;3.00;;;23.80;80.30;;;;;;5093278;28;20700;-81
2021/07/02 11:15:30;;;;;;;3.17;2.90;;;23.90;81.00;;;;;;5093372;28;20229;-81
2021/07/02 11:18:17;;;;;;;3.40;3.10;;;24.10;80.60;;;;;;5093445;28;20228;-81
2021/07/02 11:20:45;;;;;;;3.35;3.10;;;24.20;87.40;;;;;;5093550;28;20190;-81
2021/07/02 11:23:23;;;;;;;4.65;3.10;;;24.20;87.00;;;;;;5093517;28;20227;-81
2021/07/02 11:26:00;;;;;;;3.20;3.00;;;24.20;85.90;;;;;;5093210;28;20192;-81
2021/07/02 11:28:42;;;;;;;2.80;2.67;;;24.20;82.30;;;;;;5093389;28;20601;-81
2021/07/02 11:31:12;;;;;;;3.60;3.30;;;24.20;85.50;;;;;;5093103;28;20205;-81
2021/07/02 11:33:40;;;;;;;3.05;2.85;;;24.00;85.50;;;;;;5097564;28;20197;-81
2021/07/02 11:36:12;;;;;;;3.15;2.95;;;24.00;86.10;;;;;;5097370;28;20644;-81
2021/07/02 11:38:51;;;;;;;3.50;3.22;;;24.10;87.70;;;;;;5097185;28;20585;-81
2021/07/02 11:41:24;;;;;;;3.05;2.85;;;24.10;82.80;;;;;;5097431;28;20185;-81
2021/07/02 11:43:51;;;;;;;3.33;3.03;;;24.10;81.80;;;;;;5097580;28;20190;-80
2021/07/02 11:46:21;;;;;;;3.58;3.28;;;24.10;81.60;;;;;;5097484;28;20185;-80
2021/07/02 11:48:49;;;;;;;3.10;2.80;;;23.90;80.80;;;;;;5097293;28;20225;-81
2021/07/02 11:51:18;;;;;;;4.25;3.22;;;23.80;80.40;;;;;;5097295;28;20209;-80
2021/07/02 11:53:47;;;;;;;3.70;3.40;;;23.30;77.80;;;;;;5097326;28;20190;-81
2021/07/02 11:56:16;;;;;;;3.80;3.50;;;23.20;83.30;;;;;;5097289;28;20268;-81
2021/07/02 11:58:45;;;;;;;3.40;3.20;;;23.10;86.10;;;;;;5097155;28;20225;-81
2021/07/02 12:01:14;;;;;;;3.80;3.50;;;23.10;85.50;;;;;;5097176;28;20193;-80
2021/07/02 12:03:48;;;;;;;3.57;3.10;;;23.00;85.00;;;;;;5097161;28;20193;-80
2021/07/02 12:06:27;;;;;;;3.20;2.90;;;23.00;89.40;;;;;;5097115;28;20189;-81
2021/07/02 12:09:05;;;;;;;3.67;3.37;;;23.10;84.10;;;;;;5096678;28;20470;-81
2021/07/02 12:11:36;;;;;;;3.73;3.27;;;23.30;87.90;;;;;;5096912;28;20209;-81
2021/07/02 12:14:04;;;;;;;3.17;2.97;;;23.40;87.80;;;;;;5096977;28;20182;-81
2021/07/02 12:16:34;;;;;;;3.67;3.40;;;23.30;86.00;;;;;;5096421;28;20233;-82
2021/07/02 12:19:04;;;;;;;3.20;3.00;;;23.30;87.20;;;;;;5096719;28;20224;-81
2021/07/02 12:21:31;;;;;;;3.50;3.20;;;23.20;86.60;;;;;;5098216;28;20424;-82
2021/07/02 12:24:00;;;;;;;4.10;3.70;;;23.00;88.10;;;;;;5096827;28;20438;-82
2021/07/02 12:26:28;;;;;;;5.10;4.40;;;22.90;88.30;;;;;;5096493;28;20415;-81
2021/07/02 12:29:01;;;;;;;3.90;3.50;;;22.60;89.10;;;;;;5096240;28;20463;-82
2021/07/02 12:31:30;;;;;;;4.13;3.70;;;22.40;87.70;;;;;;5096521;28;20467;-82
2021/07/02 12:33:58;;;;;;;4.00;3.60;;;22.20;90.00;;;;;;5096604;28;20438;-82
2021/07/02 12:36:27;;;;;;;4.20;3.80;;;22.00;90.30;;;;;;5096181;28;20918;-81
2021/07/02 12:39:07;;;;;;;4.30;3.80;;;21.90;90.60;;;;;;5096067;28;20471;-82
2021/07/02 12:41:43;;;;;;;4.20;3.90;;;22.00;89.60;;;;;;5096356;28;20424;-82
2021/07/02 12:44:12;;;;;;;4.07;3.67;;;22.00;89.60;;;;;;5095603;28;20420;-82
2021/07/02 12:46:39;;;;;;;3.93;3.53;;;22.00;90.00;;;;;;5096330;28;20435;-82
2021/07/02 12:49:27;;;;;;;4.20;3.80;;;21.80;90.40;;;;;;5096202;28;20474;-81
2021/07/02 12:54:55;;;;;;;4.40;4.00;;;21.60;91.90;;;;;;5095918;28;20765;-81
2021/07/02 12:57:28;;;;;;;4.47;3.80;;;21.60;91.30;;;;;;5095995;28;20471;-82